Time;durP1;ratioP1;P1;durP2;ratioP2;P2;SDS_P1;SDS_P2;PMS_P1;PMS_P2;Temp;Humidity;BMP_temperature;BMP_pressure;BME280_temperature;BME280_humidity;BME280_pressure;Samples;Min_cycle;Max_cycle;Signal;HPM_P1;HPM_P2
2024/02/19 00:00:57;;;;;;;16.80;2.55;;;;;;;9.45;100.00;101639.72;4900100;29;20561;-94
2024/02/19 00:03:31;;;;;;;25.05;4.03;;;;;;;9.52;100.00;101641.00;4902913;29;20162;-94
2024/02/19 00:06:09;;;;;;;23.17;3.25;;;;;;;9.50;100.00;101661.34;4884031;29;20067;-92
2024/02/19 00:08:35;;;;;;;18.85;3.45;;;;;;;9.49;100.00;101657.03;4883199;29;20039;-91
2024/02/19 00:11:07;;;;;;;19.15;2.80;;;;;;;9.57;100.00;101638.03;4896220;29;20040;-94
2024/02/19 00:14:01;;;;;;;16.27;3.22;;;;;;;9.53;100.00;101625.03;4902768;29;20031;-95
2024/02/19 00:16:39;;;;;;;24.55;3.03;;;;;;;9.54;100.00;101634.63;4894706;29;20039;-94
2024/02/19 00:19:45;;;;;;;;;;;;;;;;;;;;;
2024/02/19 00:22:15;;;;;;;13.68;2.78;;;;;;;9.62;100.00;101660.50;4918939;29;20147;-90
2024/02/19 00:25:04;;;;;;;13.73;2.20;;;;;;;9.63;100.00;101667.47;4901516;29;20070;-94
2024/02/19 00:38:31;;;;;;;12.10;2.78;;;;;;;9.51;100.00;101642.78;4908894;29;20050;-94
2024/02/19 00:41:05;;;;;;;15.80;2.92;;;;;;;9.60;100.00;101645.72;4900146;29;20131;-94
2024/02/19 00:44:01;;;;;;;16.52;2.80;;;;;;;9.53;100.00;101651.44;4917294;29;20066;-94
2024/02/19 00:46:38;;;;;;;18.75;2.85;;;;;;;9.62;100.00;101649.09;4903270;29;20510;-95
2024/02/19 00:49:15;;;;;;;15.95;2.78;;;;;;;9.58;100.00;101634.41;4919069;29;20490;-94
2024/02/19 00:52:09;;;;;;;20.77;4.53;;;;;;;9.62;100.00;101625.34;4905657;29;20443;-95
2024/02/19 00:54:38;;;;;;;20.40;3.03;;;;;;;9.57;100.00;101630.97;4888016;29;20090;-93
2024/02/19 00:57:24;;;;;;;24.27;3.67;;;;;;;9.55;100.00;101636.34;4887484;29;20042;-93
2024/02/19 00:59:50;;;;;;;20.92;2.65;;;;;;;9.57;100.00;101635.38;4905105;29;20034;-92
2024/02/19 01:02:26;;;;;;;21.60;2.90;;;;;;;9.57;100.00;101632.75;4903844;29;20122;-94
2024/02/19 01:04:56;;;;;;;22.27;3.10;;;;;;;9.51;100.00;101637.50;4899707;29;20054;-93
2024/02/19 01:07:25;;;;;;;15.55;2.70;;;;;;;9.51;100.00;101640.13;4915088;29;20074;-93
2024/02/19 01:10:04;;;;;;;27.23;4.10;;;;;;;9.49;100.00;101646.47;4902782;29;20554;-93
2024/02/19 01:12:32;;;;;;;21.52;2.80;;;;;;;9.50;100.00;101659.56;4912153;29;20043;-93
2024/02/19 01:15:09;;;;;;;;;;;;;;;;;;;;;
2024/02/19 01:17:37;;;;;;;26.38;4.03;;;;;;;9.47;100.00;101643.09;4917913;29;20099;-91
2024/02/19 01:20:05;;;;;;;22.15;3.22;;;;;;;9.52;100.00;101643.63;4907561;29;20047;-92
2024/02/19 01:22:34;;;;;;;22.88;3.13;;;;;;;9.56;100.00;101647.72;4904042;29;20035;-92
2024/02/19 01:25:01;;;;;;;14.60;2.65;;;;;;;9.58;100.00;101658.19;4888086;29;20039;-91
2024/02/19 01:27:28;;;;;;;22.92;3.38;;;;;;;9.59;100.00;101662.53;4886970;29;20059;-91
2024/02/19 01:29:54;;;;;;;21.63;3.05;;;;;;;9.63;100.00;101650.78;4901782;29;20036;-92
2024/02/19 01:32:22;;;;;;;19.90;2.58;;;;;;;9.64;100.00;101655.09;4898248;29;20032;-92
2024/02/19 01:34:55;;;;;;;17.25;2.28;;;;;;;9.62;100.00;101654.38;4893251;29;20078;-92
2024/02/19 01:37:21;;;;;;;23.00;2.88;;;;;;;9.65;100.00;101654.16;4892310;29;20525;-92
2024/02/19 01:40:09;;;;;;;19.17;3.33;;;;;;;9.68;100.00;101652.13;4875361;29;20048;-92
2024/02/19 01:42:35;;;;;;;20.30;3.33;;;;;;;9.66;100.00;101656.69;4900608;29;20108;-92
2024/02/19 01:45:03;;;;;;;16.40;2.58;;;;;;;9.63;100.00;101643.72;4919223;29;20028;-92
2024/02/19 01:47:31;;;;;;;15.75;2.90;;;;;;;9.70;100.00;101659.94;4891151;29;20032;-93
2024/02/19 01:50:00;;;;;;;24.75;3.42;;;;;;;9.71;100.00;101650.25;4897162;29;20032;-93
2024/02/19 01:52:26;;;;;;;17.42;2.53;;;;;;;9.74;100.00;101661.44;4882339;29;20037;-92
2024/02/19 01:54:55;;;;;;;18.23;3.13;;;;;;;9.72;100.00;101658.06;4897318;29;20499;-91
2024/02/19 01:57:26;;;;;;;16.17;2.22;;;;;;;9.77;100.00;101670.94;4908150;29;20052;-93
2024/02/19 01:59:55;;;;;;;11.75;2.35;;;;;;;9.78;100.00;101662.91;4894797;29;20048;-92
2024/02/19 02:05:36;;;;;;;16.58;1.80;;;;;;;9.78;100.00;101656.75;4914294;29;20043;-94
2024/02/19 02:08:32;;;;;;;15.55;1.98;;;;;;;9.79;100.00;101640.81;4894765;29;20557;-93
2024/02/19 02:11:37;;;;;;;15.82;1.73;;;;;;;9.89;100.00;101646.28;4903002;29;20044;-94
2024/02/19 02:22:24;;;;;;;11.82;1.98;;;;;;;9.87;100.00;101652.63;4916936;29;20044;-93
2024/02/19 02:28:41;;;;;;;11.25;1.52;;;;;;;9.87;100.00;101653.50;4849500;29;20081;-94
2024/02/19 02:32:55;;;;;;;15.32;1.95;;;;;;;9.92;100.00;101648.69;4864520;29;20101;-94
2024/02/19 02:36:25;;;;;;;15.98;1.45;;;;;;;9.87;100.00;101653.50;4792350;29;20150;-93
2024/02/19 02:43:17;;;;;;;;;;;;;;;;;;;;;
2024/02/19 02:46:21;;;;;;;11.13;1.10;;;;;;;9.81;100.00;101645.97;4765997;29;20056;-92
2024/02/19 02:49:37;;;;;;;;;;;;;;;;;;;;;
2024/02/19 02:52:26;;;;;;;10.35;1.90;;;;;;;9.73;100.00;101633.31;4818615;29;20534;-92
2024/02/19 02:55:24;;;;;;;13.23;1.60;;;;;;;9.74;100.00;101634.19;4784404;29;20043;-91
2024/02/19 02:58:14;;;;;;;8.05;1.65;;;;;;;9.65;100.00;101641.78;4800798;29;20045;-92
2024/02/19 03:00:58;;;;;;;13.57;1.58;;;;;;;9.69;100.00;101647.72;4901863;29;20269;-93
2024/02/19 03:03:35;;;;;;;14.23;1.83;;;;;;;9.69;100.00;101655.63;4901217;29;20036;-91
2024/02/19 03:06:04;;;;;;;18.88;2.17;;;;;;;9.72;100.00;101662.47;4872574;29;20037;-92
2024/02/19 03:09:01;;;;;;;12.13;1.90;;;;;;;9.75;100.00;101649.91;4896092;29;20127;-94
2024/02/19 03:11:56;;;;;;;14.38;1.73;;;;;;;9.80;100.00;101647.78;4909594;29;20044;-92
2024/02/19 03:14:47;;;;;;;11.10;1.70;;;;;;;9.82;100.00;101646.84;4883507;29;20048;-93
2024/02/19 03:17:19;;;;;;;17.60;2.63;;;;;;;9.76;100.00;101653.41;4882837;29;20040;-91
2024/02/19 03:19:46;;;;;;;26.77;3.50;;;;;;;9.77;100.00;101653.31;4904405;29;20040;-92
2024/02/19 03:22:58;;;;;;;24.25;3.92;;;;;;;9.84;100.00;101652.84;4889934;29;20040;-92
2024/02/19 03:25:27;;;;;;;27.67;3.60;;;;;;;9.76;100.00;101658.69;4888747;29;20032;-92
2024/02/19 03:27:55;;;;;;;26.42;3.25;;;;;;;9.77;100.00;101655.09;4876442;29;20486;-93
2024/02/19 03:30:36;;;;;;;26.13;3.83;;;;;;;9.85;100.00;101665.94;4907224;29;20035;-94
2024/02/19 03:33:06;;;;;;;23.65;3.42;;;;;;;9.78;100.00;101670.81;4895302;29;20495;-93
2024/02/19 03:35:53;;;;;;;25.83;3.85;;;;;;;9.75;100.00;101673.69;4912067;29;20086;-93
2024/02/19 03:38:24;;;;;;;25.38;3.60;;;;;;;9.69;100.00;101676.75;4872852;29;20087;-94
2024/02/19 03:41:23;;;;;;;26.92;3.72;;;;;;;9.65;100.00;101673.47;4911983;29;20085;-94
2024/02/19 03:43:50;;;;;;;25.58;3.40;;;;;;;9.66;100.00;101669.03;4880151;29;20554;-92
2024/02/19 03:46:27;;;;;;;33.88;4.32;;;;;;;9.64;100.00;101663.03;4900192;29;20036;-91
2024/02/19 03:48:55;;;;;;;32.08;4.32;;;;;;;9.69;100.00;101674.09;4888292;29;20046;-93
2024/02/19 03:51:24;;;;;;;32.83;4.82;;;;;;;9.63;100.00;101669.25;4889573;29;20048;-92
2024/02/19 03:53:50;;;;;;;29.65;4.35;;;;;;;9.62;100.00;101670.22;4888318;29;20048;-92
2024/02/19 03:56:24;;;;;;;30.73;5.28;;;;;;;9.69;100.00;101679.38;4895761;29;20474;-93
2024/02/19 03:59:16;;;;;;;37.75;5.18;;;;;;;9.66;100.00;101674.31;4900744;29;20032;-94
2024/02/19 04:02:04;;;;;;;34.97;5.70;;;;;;;9.56;100.00;101668.84;4897147;29;20051;-94
2024/02/19 04:04:41;;;;;;;38.05;6.10;;;;;;;9.59;100.00;101670.44;4904302;29;20695;-93
2024/02/19 04:07:35;;;;;;;31.10;5.07;;;;;;;9.55;100.00;101654.81;4911374;29;20055;-94
2024/02/19 04:10:20;;;;;;;41.78;6.50;;;;;;;9.61;100.00;101668.53;4896070;29;20070;-94
2024/02/19 04:12:59;;;;;;;28.38;4.28;;;;;;;9.51;100.00;101665.66;4911035;29;20051;-93
2024/02/19 04:15:27;;;;;;;45.83;8.20;;;;;;;9.58;100.00;101671.38;4920578;29;20490;-93
2024/02/19 04:17:53;;;;;;;40.30;5.13;;;;;;;9.56;100.00;101679.41;4918496;29;20039;-94
2024/02/19 04:20:29;;;;;;;33.92;4.75;;;;;;;9.63;100.00;101679.81;4884953;29;20078;-94
2024/02/19 04:23:32;;;;;;;43.00;5.18;;;;;;;9.47;100.00;101672.97;4926828;29;20133;-94
2024/02/19 04:26:08;;;;;;;42.08;7.65;;;;;;;9.53;100.00;101682.25;4913459;29;20111;-94
2024/02/19 04:28:56;;;;;;;46.50;6.30;;;;;;;9.51;100.00;101687.63;4884022;29;20042;-94
2024/02/19 04:31:22;;;;;;;35.83;5.43;;;;;;;9.39;100.00;101691.13;4890384;29;20055;-94
2024/02/19 04:34:14;;;;;;;30.77;5.50;;;;;;;9.45;100.00;101690.72;4915382;29;20040;-92
2024/02/19 04:36:58;;;;;;;;;;;;;;;;;;;;;
2024/02/19 04:39:37;;;;;;;42.45;6.70;;;;;;;9.36;100.00;101693.97;4928484;29;20809;-93
2024/02/19 04:42:26;;;;;;;42.33;6.35;;;;;;;9.34;100.00;101690.59;4923436;29;20046;-93
2024/02/19 04:45:03;;;;;;;43.53;6.43;;;;;;;9.35;100.00;101689.66;4907206;29;20085;-93
2024/02/19 04:47:47;;;;;;;41.75;5.78;;;;;;;9.38;100.00;101694.72;4900078;29;20071;-94
2024/02/19 04:50:15;;;;;;;44.75;7.40;;;;;;;9.37;100.00;101700.94;4908284;29;20040;-93
2024/02/19 04:52:49;;;;;;;37.38;5.97;;;;;;;9.42;100.00;101701.47;4903040;29;20035;-95
2024/02/19 04:55:28;;;;;;;48.17;7.95;;;;;;;9.35;100.00;101694.94;4902328;29;20036;-94
2024/02/19 04:58:05;;;;;;;39.65;6.55;;;;;;;9.37;100.00;101687.75;4917601;29;20486;-93
2024/02/19 05:00:40;;;;;;;46.70;6.73;;;;;;;9.36;100.00;101692.19;4906525;29;20062;-94
2024/02/19 05:03:15;;;;;;;33.38;5.95;;;;;;;9.30;100.00;101701.34;4905960;29;20469;-94
2024/02/19 05:05:56;;;;;;;40.38;5.57;;;;;;;9.27;100.00;101684.91;4918083;29;20040;-94
2024/02/19 05:08:25;;;;;;;52.72;6.90;;;;;;;9.16;100.00;101694.38;4919132;29;20054;-93
2024/02/19 05:11:14;;;;;;;40.78;5.93;;;;;;;9.10;100.00;101702.72;4921228;29;20055;-95
2024/02/19 05:13:59;;;;;;;49.15;7.95;;;;;;;9.11;100.00;101703.56;4889745;29;20035;-94
2024/02/19 05:16:30;;;;;;;55.88;7.38;;;;;;;8.99;100.00;101706.09;4911844;29;20044;-93
2024/02/19 05:19:00;;;;;;;45.03;6.32;;;;;;;8.95;100.00;101706.38;4908351;29;20043;-93
2024/02/19 05:21:55;;;;;;;39.40;6.60;;;;;;;8.96;100.00;101714.19;4917232;29;20058;-93
2024/02/19 05:24:21;;;;;;;45.85;7.30;;;;;;;8.85;100.00;101708.78;4920481;29;20122;-93
2024/02/19 05:27:12;;;;;;;50.25;7.47;;;;;;;8.90;100.00;101718.06;4902586;29;20038;-94
2024/02/19 05:29:38;;;;;;;47.25;6.38;;;;;;;8.79;100.00;101724.06;4906639;29;20046;-91
2024/02/19 05:32:05;;;;;;;52.60;8.70;;;;;;;8.76;100.00;101707.63;4907126;29;20036;-93
2024/02/19 05:34:31;;;;;;;41.15;6.82;;;;;;;8.77;100.00;101717.22;4909284;29;20032;-93
2024/02/19 05:36:57;;;;;;;57.65;8.85;;;;;;;8.71;100.00;101705.28;4939164;29;20066;-94
2024/02/19 05:39:28;;;;;;;39.08;6.55;;;;;;;8.81;100.00;101726.59;4908741;29;20152;-94
2024/02/19 05:42:07;;;;;;;39.75;7.22;;;;;;;8.78;100.00;101726.78;4900468;29;20447;-93
2024/02/19 05:44:38;;;;;;;47.05;7.85;;;;;;;8.85;100.00;101732.50;4879672;29;20538;-94
2024/02/19 05:47:15;;;;;;;52.03;6.28;;;;;;;8.81;100.00;101732.72;4869688;29;20048;-93
2024/02/19 05:49:44;;;;;;;48.85;7.03;;;;;;;8.80;100.00;101731.03;4890544;29;20044;-93
2024/02/19 05:52:13;;;;;;;51.38;7.22;;;;;;;8.82;100.00;101733.56;4885686;29;20068;-94
2024/02/19 05:55:10;;;;;;;43.35;7.07;;;;;;;8.90;100.00;101747.06;4890758;29;20143;-93
2024/02/19 05:57:56;;;;;;;43.00;7.45;;;;;;;8.83;100.00;101743.16;4903888;29;20135;-92
2024/02/19 06:00:22;;;;;;;60.28;8.10;;;;;;;8.85;100.00;101743.91;4886291;29;20047;-93
2024/02/19 06:02:50;;;;;;;43.28;7.05;;;;;;;8.87;100.00;101749.91;4887896;29;20061;-93
2024/02/19 06:05:16;;;;;;;44.95;6.72;;;;;;;8.86;100.00;101758.78;4889770;29;20054;-93
2024/02/19 06:07:43;;;;;;;47.28;7.82;;;;;;;8.87;100.00;101759.63;4887576;29;20423;-93
2024/02/19 06:10:15;;;;;;;44.92;8.15;;;;;;;8.87;100.00;101746.47;4891699;29;20114;-93
2024/02/19 06:12:44;;;;;;;43.35;6.30;;;;;;;8.87;100.00;101747.28;4900118;29;20506;-92
2024/02/19 06:15:10;;;;;;;64.38;9.10;;;;;;;8.87;100.00;101752.56;4884562;29;20047;-93
2024/02/19 06:17:38;;;;;;;53.58;9.07;;;;;;;8.86;100.00;101758.78;4872953;29;20032;-94
2024/02/19 06:20:24;;;;;;;49.58;8.43;;;;;;;8.86;100.00;101753.50;4883567;29;20039;-93
2024/02/19 06:23:10;;;;;;;47.20;6.82;;;;;;;8.82;100.00;101757.31;4891312;29;20055;-93
2024/02/19 06:29:09;;;;;;;55.30;7.05;;;;;;;8.82;100.00;101757.31;4913124;29;20040;-93
2024/02/19 06:31:42;;;;;;;46.38;6.22;;;;;;;8.85;100.00;101749.19;4887442;29;20063;-94
2024/02/19 06:34:13;;;;;;;40.58;6.60;;;;;;;8.87;100.00;101763.09;4874136;29;20044;-93
2024/02/19 06:36:40;;;;;;;51.40;7.88;;;;;;;8.91;100.00;101763.75;4886386;29;20111;-94
2024/02/19 06:39:49;;;;;;;52.60;6.68;;;;;;;8.93;100.00;101767.97;4902001;29;20032;-93
2024/02/19 06:42:19;;;;;;;45.95;8.02;;;;;;;8.85;100.00;101769.44;4892198;29;20043;-96
2024/02/19 06:44:48;;;;;;;44.40;6.85;;;;;;;8.86;100.00;101774.59;4899289;29;20035;-93
2024/02/19 06:47:17;;;;;;;53.58;7.15;;;;;;;8.85;100.00;101783.47;4889467;29;20036;-93
2024/02/19 06:49:43;;;;;;;43.22;5.90;;;;;;;8.83;100.00;101781.84;4902489;29;20035;-93
2024/02/19 06:52:09;;;;;;;52.83;8.02;;;;;;;8.80;100.00;101782.91;4892254;29;20096;-93
2024/02/19 06:54:41;;;;;;;41.38;5.97;;;;;;;8.86;100.00;101786.94;4911973;29;20063;-94
2024/02/19 06:57:10;;;;;;;43.10;6.93;;;;;;;8.78;100.00;101775.09;4893378;29;20036;-94
2024/02/19 06:59:42;;;;;;;49.20;6.25;;;;;;;8.85;100.00;101779.97;4912443;29;20039;-94
2024/02/19 07:02:22;;;;;;;57.53;8.48;;;;;;;8.79;100.00;101782.06;4910459;29;20031;-94
2024/02/19 07:04:48;;;;;;;56.88;7.85;;;;;;;8.82;100.00;101796.84;4891219;29;20411;-93
2024/02/19 07:07:17;;;;;;;50.03;7.65;;;;;;;8.86;100.00;101792.19;4902041;29;20490;-93
2024/02/19 07:09:43;;;;;;;47.33;7.57;;;;;;;8.90;100.00;101796.34;4905743;29;20055;-94
2024/02/19 07:12:09;;;;;;;56.67;7.72;;;;;;;8.90;100.00;101789.25;4908287;29;20390;-93
2024/02/19 07:14:35;;;;;;;51.20;7.40;;;;;;;8.96;100.00;101811.78;4941488;29;20044;-93
2024/02/19 07:17:35;;;;;;;51.13;6.22;;;;;;;9.03;100.00;101807.78;4900476;29;20439;-95
2024/02/19 07:20:38;;;;;;;42.88;7.13;;;;;;;8.96;100.00;101803.84;4906698;29;20371;-94
2024/02/19 07:23:26;;;;;;;52.17;7.68;;;;;;;9.05;100.00;101821.72;4895412;29;20062;-95
2024/02/19 07:34:44;;;;;;;41.88;7.22;;;;;;;9.00;100.00;101844.06;4868314;29;20088;-93
2024/02/19 07:38:11;;;;;;;55.47;8.50;;;;;;;8.91;100.00;101837.59;4915879;29;20111;-94
2024/02/19 07:40:27;;;;;;;51.55;6.82;;;;;;;8.95;100.00;101838.25;4893686;29;20057;-94
2024/02/19 07:42:54;;;;;;;53.45;7.43;;;;;;;8.90;100.00;101849.09;4916738;29;20066;-94
2024/02/19 07:45:22;;;;;;;51.47;7.07;;;;;;;8.90;100.00;101844.63;4887261;29;20038;-94
2024/02/19 07:48:03;;;;;;;56.40;7.85;;;;;;;8.91;100.00;101835.81;4902415;29;20127;-94
2024/02/19 07:50:56;;;;;;;46.58;7.20;;;;;;;8.92;100.00;101847.19;4907294;29;20051;-93
2024/02/19 07:54:16;;;;;;;50.40;7.30;;;;;;;8.81;100.00;101850.50;4914229;29;20036;-94
2024/02/19 07:56:57;;;;;;;65.07;7.72;;;;;;;8.77;100.00;101852.50;4905644;29;20043;-94
2024/02/19 07:59:41;;;;;;;61.08;8.48;;;;;;;8.85;100.00;101869.63;4905208;29;20055;-95
2024/02/19 08:02:07;;;;;;;50.20;8.30;;;;;;;8.78;100.00;101864.75;4892420;29;20051;-93
2024/02/19 08:04:33;;;;;;;65.53;7.68;;;;;;;8.78;100.00;101872.66;4914512;29;20091;-92
2024/02/19 08:07:00;;;;;;;46.10;6.97;;;;;;;8.73;100.00;101866.81;4887611;29;20490;-93
2024/02/19 08:09:39;;;;;;;55.20;8.68;;;;;;;8.84;100.00;101873.22;4921053;29;20051;-92
2024/02/19 08:12:05;;;;;;;53.60;8.48;;;;;;;8.79;100.00;101884.88;4909184;29;20039;-93
2024/02/19 08:14:38;;;;;;;55.92;8.02;;;;;;;8.78;100.00;101885.84;4900241;29;20134;-93
2024/02/19 08:17:11;;;;;;;57.85;8.02;;;;;;;8.77;100.00;101878.03;4904016;29;20508;-91
2024/02/19 08:19:54;;;;;;;60.75;9.10;;;;;;;8.80;100.00;101880.47;4932969;29;20379;-93
2024/02/19 08:22:40;;;;;;;66.25;8.80;;;;;;;8.85;100.00;101882.81;4890820;29;20036;-92
2024/02/19 08:25:06;;;;;;;52.60;8.35;;;;;;;8.87;100.00;101887.03;4920847;29;20024;-93
2024/02/19 08:27:37;;;;;;;46.13;6.68;;;;;;;8.91;100.00;101890.31;5184606;27;20189;-96
2024/02/19 08:30:12;;;;;;;69.05;9.48;;;;;;;8.93;100.00;101880.53;5101466;27;20130;-96
2024/02/19 08:32:38;;;;;;;60.80;8.15;;;;;;;8.95;100.00;101880.44;5179251;22;20059;-94
2024/02/19 08:35:05;;;;;;;47.85;7.70;;;;;;;8.95;100.00;101881.25;5037041;28;20556;-95
2024/02/19 08:37:31;;;;;;;62.50;12.18;;;;;;;8.95;100.00;101880.44;5053823;28;20120;-96
2024/02/19 08:39:57;;;;;;;56.80;7.82;;;;;;;8.98;100.00;101878.44;5069710;28;20036;-95
2024/02/19 08:42:23;;;;;;;62.78;7.50;;;;;;;8.99;100.00;101881.91;5051519;28;20047;-96
2024/02/19 08:44:49;;;;;;;61.25;8.55;;;;;;;9.01;100.00;101890.59;5069397;28;20036;-96
2024/02/19 08:47:15;;;;;;;62.45;8.60;;;;;;;9.05;100.00;101890.28;5051723;28;20119;-95
2024/02/19 08:49:41;;;;;;;46.05;8.27;;;;;;;9.07;100.00;101892.84;5081588;28;20036;-95
2024/02/19 08:52:07;;;;;;;63.22;8.13;;;;;;;9.11;100.00;101898.78;5065803;28;20384;-96
2024/02/19 08:54:33;;;;;;;65.90;8.52;;;;;;;9.08;100.00;101889.25;5066612;28;20152;-96
2024/02/19 08:57:30;;;;;;;45.88;7.25;;;;;;;9.20;100.00;101897.31;5052005;28;20436;-96
2024/02/19 08:59:55;;;;;;;;;;;;;;;9.16;100.00;101894.03;5064742;28;20067;-96
2024/02/19 09:02:21;;;;;;;64.68;7.20;;;;;;;9.18;100.00;101903.53;5052135;28;20416;-96
2024/02/19 09:04:47;;;;;;;62.10;7.68;;;;;;;9.19;100.00;101901.72;5058070;28;20366;-96
2024/02/19 09:07:13;;;;;;;55.10;7.40;;;;;;;9.23;100.00;101908.53;5036374;28;20544;-95
2024/02/19 09:09:44;;;;;;;51.55;7.18;;;;;;;9.22;100.00;101903.34;5066904;28;20038;-96
2024/02/19 09:12:10;;;;;;;43.88;7.80;;;;;;;9.27;100.00;101904.72;5040978;28;20083;-95
2024/02/19 09:14:36;;;;;;;60.88;9.18;;;;;;;9.26;100.00;101910.09;5083086;28;20036;-95
2024/02/19 09:17:02;;;;;;;61.63;7.88;;;;;;;9.32;100.00;101903.59;5052160;28;20032;-95
2024/02/19 09:19:28;;;;;;;51.97;8.80;;;;;;;9.24;100.00;101910.22;5066854;28;20072;-94
2024/02/19 09:21:54;;;;;;;52.47;7.65;;;;;;;9.29;100.00;101912.53;5068379;28;20101;-96
2024/02/19 09:24:20;;;;;;;52.97;7.78;;;;;;;9.32;100.00;101920.25;5065053;28;20040;-96
2024/02/19 09:26:45;;;;;;;47.33;7.28;;;;;;;9.36;100.00;101923.56;5048905;28;20048;-96
2024/02/19 09:29:11;;;;;;;52.45;7.78;;;;;;;9.37;100.00;101931.38;5062420;28;20039;-96
2024/02/19 09:31:37;;;;;;;61.70;8.63;;;;;;;9.39;100.00;101918.09;5045998;28;20433;-95
2024/02/19 09:34:03;;;;;;;38.75;6.10;;;;;;;9.39;100.00;101924.22;5049407;28;20028;-95
2024/02/19 09:36:29;;;;;;;50.90;7.10;;;;;;;9.37;100.00;101923.47;5048446;28;20156;-85
2024/02/19 09:38:55;;;;;;;55.28;8.32;;;;;;;9.37;100.00;101943.72;5070993;28;20119;-96
2024/02/19 09:41:21;;;;;;;48.90;6.65;;;;;;;9.40;100.00;101939.09;5014407;28;20047;-96
2024/02/19 09:43:47;;;;;;;56.08;8.05;;;;;;;9.42;100.00;101934.56;5067230;28;20021;-94
2024/02/19 09:46:22;;;;;;;49.60;8.55;;;;;;;9.47;100.00;101926.34;5063480;28;20051;-95
2024/02/19 09:48:50;;;;;;;49.33;9.23;;;;;;;9.47;100.00;101929.00;5010198;28;20109;-96
2024/02/19 09:51:22;;;;;;;55.35;7.32;;;;;;;9.57;100.00;101931.03;5040322;28;20489;-96
2024/02/19 09:53:51;;;;;;;47.72;6.47;;;;;;;9.56;100.00;101922.25;5032002;28;20051;-95
2024/02/19 09:56:19;;;;;;;58.45;8.85;;;;;;;9.55;100.00;101929.34;5043545;28;20359;-95
2024/02/19 09:58:48;;;;;;;41.80;6.95;;;;;;;9.53;100.00;101925.94;5029956;28;20036;-95
2024/02/19 10:01:15;;;;;;;44.28;7.97;;;;;;;9.57;100.00;101909.91;5026060;28;20135;-96
2024/02/19 10:03:41;;;;;;;48.75;7.43;;;;;;;9.62;100.00;101923.66;5025136;28;20138;-94
2024/02/19 10:06:07;;;;;;;50.40;7.78;;;;;;;9.64;100.00;101917.31;5057308;28;20036;-96
2024/02/19 10:08:33;;;;;;;54.95;8.00;;;;;;;9.72;100.00;101922.09;5037505;28;20044;-95
2024/02/19 10:11:06;;;;;;;50.10;7.25;;;;;;;9.78;100.00;101919.03;5051797;28;20032;-95
2024/02/19 10:13:34;;;;;;;60.58;7.47;;;;;;;9.88;100.00;101921.91;5041559;28;20040;-95
2024/02/19 10:16:00;;;;;;;46.63;7.22;;;;;;;9.95;100.00;101927.63;5064957;28;20086;-94
2024/02/19 10:18:26;;;;;;;59.70;8.50;;;;;;;10.09;100.00;101936.41;5034047;28;20029;-94
2024/02/19 10:20:52;;;;;;;43.35;6.90;;;;;;;10.04;100.00;101929.66;5019041;28;20036;-95
2024/02/19 10:23:20;;;;;;;51.38;8.70;;;;;;;10.14;100.00;101932.53;5049220;28;20044;-94
2024/02/19 10:25:46;;;;;;;48.83;7.68;;;;;;;10.19;100.00;101929.56;5029330;28;20079;-95
2024/02/19 10:28:13;;;;;;;49.95;8.15;;;;;;;10.17;100.00;101931.44;5050647;28;20045;-95
2024/02/19 10:30:39;;;;;;;43.97;7.38;;;;;;;10.21;100.00;101930.28;5039368;28;20041;-94
2024/02/19 10:33:06;;;;;;;42.40;7.00;;;;;;;10.22;100.00;101929.34;5026376;28;20497;-95
2024/02/19 10:35:32;;;;;;;45.47;7.22;;;;;;;10.29;100.00;101933.25;5025723;28;20133;-94
2024/02/19 10:37:59;;;;;;;42.83;7.00;;;;;;;10.30;100.00;101929.66;5046351;28;20106;-94
2024/02/19 10:40:26;;;;;;;55.38;8.57;;;;;;;10.25;100.00;101931.78;5042125;28;20038;-94
2024/02/19 10:42:53;;;;;;;49.65;8.00;;;;;;;10.25;100.00;101931.78;5032905;28;20037;-95
2024/02/19 10:45:21;;;;;;;45.92;6.28;;;;;;;10.29;100.00;101933.25;5049546;28;20489;-96
2024/02/19 10:47:50;;;;;;;59.50;7.45;;;;;;;10.26;100.00;101922.03;5014767;28;20039;-94
2024/02/19 10:50:20;;;;;;;42.28;7.15;;;;;;;10.32;100.00;101934.00;5049084;28;20035;-95
2024/02/19 10:52:50;;;;;;;45.53;8.02;;;;;;;10.38;100.00;101938.84;5032302;28;20032;-95
2024/02/19 10:55:22;;;;;;;40.88;7.28;;;;;;;10.50;100.00;101942.47;5031196;28;20026;-93
2024/02/19 10:57:55;;;;;;;44.42;7.72;;;;;;;10.64;100.00;101952.06;5039320;28;20055;-94
2024/02/19 11:00:26;;;;;;;49.40;8.55;;;;;;;10.73;100.00;101940.88;5026204;28;20474;-93
2024/02/19 11:03:08;;;;;;;51.85;8.23;;;;;;;10.88;100.00;101938.06;5019639;28;20422;-93
2024/02/19 11:05:37;;;;;;;47.22;7.45;;;;;;;10.92;100.00;101944.84;5044723;28;20531;-94
2024/02/19 11:08:05;;;;;;;42.05;6.78;;;;;;;10.98;100.00;101949.72;5043676;28;20041;-94
2024/02/19 11:10:41;;;;;;;46.17;7.95;;;;;;;11.15;100.00;101942.34;5037111;28;20046;-95
2024/02/19 11:13:07;;;;;;;42.45;6.50;;;;;;;11.25;100.00;101947.81;5012837;28;20096;-93
2024/02/19 11:15:42;;;;;;;42.25;7.10;;;;;;;11.44;100.00;101944.69;5045847;28;20102;-94
2024/02/19 11:18:17;;;;;;;46.30;7.57;;;;;;;11.49;100.00;101947.84;5029805;28;20048;-94
2024/02/19 11:20:48;;;;;;;27.08;5.15;;;;;;;11.37;100.00;101954.03;5020653;28;20039;-94
2024/02/19 11:23:15;;;;;;;55.95;7.75;;;;;;;11.25;100.00;101956.63;5039513;28;20071;-96
2024/02/19 11:25:43;;;;;;;37.72;6.35;;;;;;;11.27;100.00;101961.78;5011550;28;20051;-95
2024/02/19 11:28:10;;;;;;;44.70;6.60;;;;;;;11.26;100.00;101960.94;5043005;28;20102;-94
2024/02/19 11:30:36;;;;;;;41.85;6.43;;;;;;;11.23;100.00;101960.31;5009417;28;20025;-93
2024/02/19 11:33:03;;;;;;;44.42;7.65;;;;;;;11.27;100.00;101960.00;5051819;28;20061;-95
2024/02/19 11:35:29;;;;;;;39.95;6.25;;;;;;;11.37;100.00;101954.03;5045504;28;20044;-93
2024/02/19 11:37:55;;;;;;;42.47;5.72;;;;;;;11.43;100.00;101947.44;5028222;28;20033;-93
2024/02/19 11:40:21;;;;;;;33.42;6.10;;;;;;;11.46;100.00;101949.84;5043638;28;20031;-95
2024/02/19 11:42:49;;;;;;;44.13;7.38;;;;;;;11.59;100.00;101945.38;5048401;28;20079;-93
2024/02/19 11:45:16;;;;;;;42.10;6.70;;;;;;;11.61;100.00;101935.47;5030446;28;20486;-94
2024/02/19 11:47:43;;;;;;;36.42;6.03;;;;;;;11.68;100.00;101930.56;5032043;28;20039;-94
2024/02/19 11:50:16;;;;;;;35.95;5.45;;;;;;;11.61;100.00;101945.25;5032249;28;20032;-95
2024/02/19 11:52:43;;;;;;;35.88;5.63;;;;;;;11.63;100.00;101935.34;5031625;28;20045;-94
2024/02/19 11:55:18;;;;;;;41.70;7.38;;;;;;;11.71;100.00;101932.13;5031377;28;20030;-95
2024/02/19 11:57:45;;;;;;;32.45;5.25;;;;;;;11.67;100.00;101926.25;5034095;28;20045;-94
2024/02/19 12:00:14;;;;;;;32.85;6.10;;;;;;;11.68;100.00;101933.22;5009503;28;20033;-93
2024/02/19 12:02:51;;;;;;;33.65;5.80;;;;;;;11.75;100.00;101929.13;5030823;28;20029;-95
2024/02/19 12:05:18;;;;;;;44.72;7.03;;;;;;;11.71;100.00;101934.78;4996763;28;20047;-95
2024/02/19 12:07:45;;;;;;;33.97;5.75;;;;;;;11.69;100.00;101940.19;5029796;28;20040;-92
2024/02/19 12:10:11;;;;;;;37.10;5.50;;;;;;;11.66;100.00;101946.56;5050780;28;20358;-91
2024/02/19 12:12:38;;;;;;;36.88;6.00;;;;;;;11.62;100.00;101945.13;5033864;28;20032;-95
2024/02/19 12:19:03;;;;;;;39.67;5.78;;;;;;;11.53;100.00;101951.94;4985343;28;20047;-94
2024/02/19 12:22:15;;;;;;;29.83;5.68;;;;;;;11.61;100.00;101950.53;5036621;28;20033;-93
2024/02/19 12:25:44;;;;;;;37.25;5.25;;;;;;;11.63;100.00;101949.47;5029989;28;20139;-93
2024/02/19 12:28:38;;;;;;;31.17;7.25;;;;;;;11.72;100.00;101953.22;4990554;28;20104;-95
2024/02/19 12:31:57;;;;;;;33.92;4.85;;;;;;;11.70;100.00;101938.41;5026263;28;20061;-93
2024/02/19 12:35:48;;;;;;;33.95;7.63;;;;;;;11.62;100.00;101955.72;4999847;28;20053;-93
2024/02/19 12:40:42;;;;;;;32.72;7.85;;;;;;;11.41;100.00;101929.88;5003676;28;20049;-95
2024/02/19 12:43:35;;;;;;;39.03;6.82;;;;;;;11.43;100.00;101935.06;4990278;28;20076;-94
2024/02/19 12:50:28;;;;;;;46.75;11.15;;;;;;;11.36;100.00;101933.78;4967858;28;20035;-93
2024/02/19 12:53:21;;;;;;;75.20;19.67;;;;;;;11.40;100.00;101940.56;4954673;28;20089;-95